createdAt,value
2018-05-21T00:00:48.568Z,3.63
2018-05-21T00:03:51.087Z,3.80
2018-05-21T00:06:53.545Z,3.60
2018-05-21T00:09:56.030Z,3.67
2018-05-21T00:12:58.501Z,3.90
2018-05-21T00:16:01.005Z,3.67
2018-05-21T00:19:03.500Z,3.73
2018-05-21T00:22:05.918Z,3.33
2018-05-21T00:25:08.461Z,3.63
2018-05-21T00:28:10.912Z,3.80
2018-05-21T00:31:13.361Z,3.77
2018-05-21T00:34:15.788Z,3.73
2018-05-21T00:37:18.352Z,3.43
2018-05-21T00:40:20.811Z,3.40
2018-05-21T00:43:23.310Z,3.60
2018-05-21T00:46:25.783Z,3.80
2018-05-21T00:49:28.221Z,3.90
2018-05-21T00:52:30.737Z,3.40
2018-05-21T00:55:39.261Z,3.10
2018-05-21T00:58:41.736Z,3.57
2018-05-21T01:01:44.317Z,3.40
2018-05-21T01:04:46.842Z,3.30
2018-05-21T01:07:49.337Z,4.00
2018-05-21T01:10:51.751Z,3.90
2018-05-21T01:13:54.329Z,3.50
2018-05-21T01:16:56.787Z,3.50
2018-05-21T01:20:00.226Z,3.43
2018-05-21T01:23:02.701Z,3.67
2018-05-21T01:26:05.293Z,3.50
2018-05-21T01:29:07.737Z,3.40
2018-05-21T01:32:10.162Z,3.37
2018-05-21T01:35:13.785Z,3.60
2018-05-21T01:38:16.217Z,3.50
2018-05-21T01:41:18.793Z,3.70
2018-05-21T01:44:21.282Z,3.80
2018-05-21T01:47:23.747Z,3.63
2018-05-21T01:50:26.202Z,3.70
2018-05-21T01:53:28.771Z,3.63
2018-05-21T01:56:31.223Z,3.47
2018-05-21T01:59:33.696Z,3.40
2018-05-21T02:02:36.183Z,3.83
2018-05-21T02:05:38.716Z,3.83
2018-05-21T02:08:41.270Z,3.70
2018-05-21T02:11:43.644Z,3.87
2018-05-21T02:14:46.106Z,3.73
2018-05-21T02:17:48.517Z,3.77
2018-05-21T02:20:50.977Z,3.90
2018-05-21T02:23:53.442Z,3.53
2018-05-21T02:26:56.047Z,3.57
2018-05-21T02:29:58.427Z,3.53
2018-05-21T02:33:00.868Z,3.60
2018-05-21T02:36:03.432Z,3.60
2018-05-21T02:39:05.946Z,3.80
2018-05-21T02:42:08.413Z,3.73
2018-05-21T02:45:10.873Z,3.50
2018-05-21T02:48:13.322Z,3.20
2018-05-21T02:51:15.838Z,3.80
2018-05-21T02:54:18.303Z,3.50
2018-05-21T02:57:20.784Z,4.00
2018-05-21T03:00:23.311Z,3.60
2018-05-21T03:03:25.742Z,3.27
2018-05-21T03:06:28.240Z,3.90
2018-05-21T03:09:30.787Z,3.80
2018-05-21T03:12:33.254Z,3.57
2018-05-21T03:15:35.813Z,4.10
2018-05-21T03:18:38.256Z,3.57
2018-05-21T03:21:40.754Z,3.87
2018-05-21T03:24:43.407Z,3.90
2018-05-21T03:27:45.928Z,3.80
2018-05-21T03:30:48.459Z,3.67
2018-05-21T03:33:50.919Z,3.37
2018-05-21T03:36:53.454Z,3.80
2018-05-21T03:39:55.933Z,3.70
2018-05-21T03:42:58.353Z,3.60
2018-05-21T03:46:00.895Z,3.23
2018-05-21T03:49:03.403Z,4.23
2018-05-21T03:52:05.932Z,4.07
2018-05-21T03:55:08.423Z,3.70
2018-05-21T03:58:22.626Z,3.80
2018-05-21T04:01:36.813Z,3.93
2018-05-21T04:04:39.229Z,3.67
2018-05-21T04:07:41.713Z,3.53
2018-05-21T04:10:44.183Z,4.17
2018-05-21T04:13:46.703Z,3.40
2018-05-21T04:16:49.162Z,3.53
2018-05-21T04:19:51.648Z,4.07
2018-05-21T04:22:54.971Z,3.77
2018-05-21T04:25:57.464Z,3.87
2018-05-21T04:29:00.009Z,3.73
2018-05-21T04:32:02.440Z,3.37
2018-05-21T04:35:04.894Z,3.60
2018-05-21T04:38:07.318Z,3.60
2018-05-21T04:41:09.775Z,3.93
2018-05-21T04:44:12.245Z,3.60
2018-05-21T04:47:14.808Z,3.60
2018-05-21T04:50:17.234Z,4.10
2018-05-21T04:53:19.733Z,3.90
2018-05-21T04:56:22.392Z,3.93
2018-05-21T04:59:24.828Z,3.70
2018-05-21T05:02:27.298Z,3.90
2018-05-21T05:05:29.760Z,4.10
2018-05-21T05:08:32.211Z,4.00
2018-05-21T05:11:34.638Z,4.00
2018-05-21T05:14:37.119Z,4.30
2018-05-21T05:17:39.569Z,4.40
2018-05-21T05:20:42.029Z,3.83
2018-05-21T05:23:44.505Z,4.23
2018-05-21T05:26:46.970Z,4.30
2018-05-21T05:29:49.561Z,4.50
2018-05-21T05:32:52.020Z,4.10
2018-05-21T05:35:54.517Z,4.23
2018-05-21T05:38:56.964Z,4.07
2018-05-21T05:41:59.475Z,4.30
2018-05-21T05:45:02.028Z,4.40
2018-05-21T05:48:04.474Z,4.43
2018-05-21T05:51:06.971Z,4.97
2018-05-21T05:54:09.464Z,4.90
2018-05-21T05:57:11.912Z,4.83
2018-05-21T06:00:14.469Z,4.40
2018-05-21T06:03:16.895Z,4.93
2018-05-21T06:06:19.363Z,4.60
2018-05-21T06:09:21.791Z,4.70
2018-05-21T06:12:24.250Z,5.07
2018-05-21T06:15:26.715Z,4.93
2018-05-21T06:18:29.298Z,4.70
2018-05-21T06:21:31.925Z,5.03
2018-05-21T06:24:34.496Z,5.10
2018-05-21T06:27:36.939Z,4.70
2018-05-21T06:30:39.396Z,4.90
2018-05-21T06:33:41.954Z,5.17
2018-05-21T06:36:44.446Z,4.93
2018-05-21T06:39:46.971Z,4.57
2018-05-21T06:42:49.521Z,5.23
2018-05-21T06:45:52.030Z,5.60
2018-05-21T06:48:54.526Z,4.90
2018-05-21T06:51:56.995Z,5.60
2018-05-21T06:54:59.476Z,5.33
2018-05-21T06:58:02.046Z,5.40
2018-05-21T07:01:04.516Z,5.30
2018-05-21T07:04:07.066Z,5.20
2018-05-21T07:07:09.546Z,5.30
2018-05-21T07:10:12.007Z,5.10
2018-05-21T07:13:14.449Z,6.13
2018-05-21T07:16:16.921Z,5.77
2018-05-21T07:19:19.416Z,6.23
2018-05-21T07:22:21.910Z,5.67
2018-05-21T07:25:24.369Z,6.20
2018-05-21T07:28:26.901Z,6.30
2018-05-21T07:31:29.431Z,6.03
2018-05-21T07:34:31.830Z,6.00
2018-05-21T07:37:34.315Z,6.27
2018-05-21T07:40:36.756Z,6.10
2018-05-21T07:43:39.213Z,5.50
2018-05-21T07:46:41.772Z,6.10
2018-05-21T07:49:44.186Z,6.00
2018-05-21T07:52:46.690Z,6.00
2018-05-21T07:55:49.146Z,5.50
2018-05-21T07:58:51.643Z,5.50
2018-05-21T08:01:54.116Z,5.87
2018-05-21T08:04:56.621Z,6.07
2018-05-21T08:07:59.207Z,5.67
2018-05-21T08:11:01.675Z,5.50
2018-05-21T08:14:04.162Z,5.33
2018-05-21T08:17:06.600Z,5.33
2018-05-21T08:20:09.088Z,5.50
2018-05-21T08:23:11.531Z,5.23
2018-05-21T08:26:14.015Z,5.33
2018-05-21T08:29:16.479Z,5.13
2018-05-21T08:32:19.003Z,5.10
2018-05-21T08:35:21.603Z,5.57
2018-05-21T08:38:24.152Z,5.33
2018-05-21T08:41:26.627Z,5.33
2018-05-21T08:44:29.083Z,5.40
2018-05-21T08:47:31.557Z,5.03
2018-05-21T08:50:34.073Z,4.60
2018-05-21T08:53:37.387Z,4.93
2018-05-21T08:56:39.960Z,5.20
2018-05-21T08:59:42.434Z,5.00
2018-05-21T09:02:44.972Z,5.27
2018-05-21T09:05:47.458Z,5.20
2018-05-21T09:08:49.959Z,5.47
2018-05-21T09:11:52.565Z,4.83
2018-05-21T09:14:54.994Z,5.10
2018-05-21T09:17:57.521Z,5.17
2018-05-21T09:21:00.047Z,4.73
2018-05-21T09:24:02.532Z,5.23
2018-05-21T09:27:05.068Z,4.80
2018-05-21T09:30:07.647Z,4.37
2018-05-21T09:33:10.084Z,5.70
2018-05-21T09:36:12.655Z,5.00
2018-05-21T09:39:15.137Z,5.37
2018-05-21T09:42:17.648Z,5.73
2018-05-21T09:45:20.134Z,5.40
2018-05-21T09:48:22.605Z,5.20
2018-05-21T09:51:25.164Z,5.50
2018-05-21T09:54:27.656Z,4.83
2018-05-21T09:57:30.123Z,4.70
2018-05-21T10:00:32.583Z,5.50
2018-05-21T10:03:35.069Z,5.13
2018-05-21T10:06:37.494Z,5.30
2018-05-21T10:09:39.984Z,5.50
2018-05-21T10:12:42.458Z,5.27
2018-05-21T10:15:45.059Z,4.93
2018-05-21T10:18:47.548Z,5.00
2018-05-21T10:21:50.069Z,3.90
2018-05-21T10:24:52.569Z,4.60
2018-05-21T10:27:55.104Z,4.57
2018-05-21T10:30:57.671Z,5.00
2018-05-21T10:34:00.122Z,4.50
2018-05-21T10:37:02.723Z,4.37
2018-05-21T10:40:05.224Z,4.63
2018-05-21T10:43:07.928Z,4.47
2018-05-21T10:46:10.451Z,4.40
2018-05-21T10:49:12.929Z,4.43
2018-05-21T10:52:15.468Z,4.70
2018-05-21T10:55:17.994Z,4.73
2018-05-21T10:58:20.533Z,4.50
2018-05-21T11:01:22.982Z,4.40
2018-05-21T11:04:25.460Z,4.00
2018-05-21T11:07:28.514Z,4.47
2018-05-21T11:10:31.002Z,4.33
2018-05-21T11:13:33.524Z,4.67
2018-05-21T11:16:36.064Z,4.40
2018-05-21T11:19:38.564Z,4.10
2018-05-21T11:22:41.058Z,4.33
2018-05-21T11:25:43.550Z,4.03
2018-05-21T11:28:45.975Z,4.30
2018-05-21T11:31:48.558Z,4.30
2018-05-21T11:34:51.005Z,4.20
2018-05-21T11:37:53.485Z,3.60
2018-05-21T11:40:55.998Z,4.10
2018-05-21T11:43:58.451Z,4.20
2018-05-21T11:47:00.914Z,4.37
2018-05-21T11:50:03.386Z,4.20
2018-05-21T11:53:05.875Z,4.03
2018-05-21T11:56:08.327Z,4.00
2018-05-21T11:59:10.909Z,4.40
2018-05-21T12:02:13.365Z,4.43
2018-05-21T12:05:15.834Z,4.20
2018-05-21T12:08:18.385Z,3.63
2018-05-21T12:11:20.851Z,4.80
2018-05-21T12:14:23.310Z,4.07
2018-05-21T12:17:25.789Z,4.20
2018-05-21T12:20:28.270Z,4.73
2018-05-21T12:23:31.170Z,4.40
2018-05-21T12:26:33.660Z,4.10
2018-05-21T12:29:36.181Z,4.40
2018-05-21T12:32:38.674Z,4.67
2018-05-21T12:35:41.115Z,4.37
2018-05-21T12:38:43.660Z,4.20
2018-05-21T12:41:46.159Z,4.07
2018-05-21T12:44:48.655Z,4.27
2018-05-21T12:47:51.249Z,4.47
2018-05-21T12:50:53.677Z,4.07
2018-05-21T12:53:56.168Z,4.60
2018-05-21T12:56:58.734Z,4.30
2018-05-21T13:00:01.233Z,3.77
2018-05-21T13:03:03.756Z,4.50
2018-05-21T13:06:06.424Z,4.10
2018-05-21T13:09:08.889Z,4.33
2018-05-21T13:12:11.346Z,4.30
2018-05-21T13:15:13.863Z,4.20
2018-05-21T13:18:16.301Z,3.70
2018-05-21T13:21:18.829Z,4.10
2018-05-21T13:24:21.372Z,4.40
2018-05-21T13:27:23.871Z,3.83
2018-05-21T13:30:26.419Z,3.73
2018-05-21T13:33:28.879Z,3.73
2018-05-21T13:36:31.375Z,4.07
2018-05-21T13:39:33.840Z,4.03
2018-05-21T13:42:36.359Z,3.40
2018-05-21T13:45:38.849Z,4.00
2018-05-21T13:48:41.310Z,3.90
2018-05-21T13:51:43.811Z,3.60
2018-05-21T13:54:46.404Z,3.50
2018-05-21T13:57:48.887Z,3.50
2018-05-21T14:00:51.355Z,3.50
2018-05-21T14:03:53.826Z,3.67
2018-05-21T14:06:56.286Z,3.50
2018-05-21T14:09:58.771Z,3.60
2018-05-21T14:13:01.231Z,3.43
2018-05-21T14:16:03.677Z,3.33
2018-05-21T14:19:06.161Z,3.40
2018-05-21T14:22:08.759Z,3.60
2018-05-21T14:25:11.299Z,3.43
2018-05-21T14:28:13.746Z,3.30
2018-05-21T14:31:16.229Z,3.50
2018-05-21T14:34:18.708Z,3.60
2018-05-21T14:37:21.192Z,3.67
2018-05-21T14:40:23.632Z,3.63
2018-05-21T14:43:26.107Z,3.70
2018-05-21T14:46:28.685Z,3.80
2018-05-21T14:49:31.200Z,4.00
2018-05-21T14:52:33.671Z,4.30
2018-05-21T14:55:36.231Z,3.73
2018-05-21T14:58:38.709Z,3.73
2018-05-21T15:01:41.247Z,3.70
2018-05-21T15:04:43.731Z,3.60
2018-05-21T15:07:46.214Z,3.43
2018-05-21T15:10:48.735Z,3.70
2018-05-21T15:13:51.200Z,3.43
2018-05-21T15:16:53.862Z,3.40
2018-05-21T15:19:56.343Z,3.60
2018-05-21T15:22:58.855Z,3.37
2018-05-21T15:26:01.447Z,3.27
2018-05-21T15:29:03.892Z,3.50
2018-05-21T15:32:06.375Z,3.50
2018-05-21T15:35:08.914Z,3.43
2018-05-21T15:38:11.481Z,3.00
2018-05-21T15:41:13.951Z,3.07
2018-05-21T15:44:16.445Z,3.20
2018-05-21T15:47:18.941Z,4.07
2018-05-21T15:50:21.391Z,3.77
2018-05-21T15:53:23.906Z,3.23
2018-05-21T15:56:26.387Z,2.87
2018-05-21T15:59:28.932Z,3.10
2018-05-21T16:02:31.490Z,3.33
2018-05-21T16:05:33.981Z,3.17
2018-05-21T16:08:36.476Z,3.40
2018-05-21T16:11:38.948Z,3.53
2018-05-21T16:14:41.434Z,3.17
2018-05-21T16:17:43.917Z,3.40
2018-05-21T16:20:46.453Z,3.57
2018-05-21T16:23:48.988Z,3.30
2018-05-21T16:26:51.513Z,3.80
2018-05-21T16:29:53.946Z,3.40
2018-05-21T16:32:56.445Z,3.40
2018-05-21T16:35:58.911Z,3.63
2018-05-21T16:39:01.424Z,3.30
2018-05-21T16:42:03.887Z,3.70
2018-05-21T16:45:06.374Z,3.40
2018-05-21T16:48:08.817Z,3.20
2018-05-21T16:51:11.411Z,3.23
2018-05-21T16:54:14.003Z,3.30
2018-05-21T16:57:16.501Z,3.03
2018-05-21T17:00:19.068Z,3.40
2018-05-21T17:03:21.496Z,3.07
2018-05-21T17:06:24.048Z,3.30
2018-05-21T17:09:26.571Z,3.60
2018-05-21T17:12:29.103Z,3.03
2018-05-21T17:15:31.602Z,3.37
2018-05-21T17:18:34.078Z,3.20
2018-05-21T17:21:36.587Z,3.10
2018-05-21T17:24:39.246Z,3.40
2018-05-21T17:27:41.733Z,3.00
2018-05-21T17:30:44.223Z,3.43
2018-05-21T17:33:46.936Z,3.23
2018-05-21T17:36:49.442Z,3.50
2018-05-21T17:39:51.962Z,3.07
2018-05-21T17:42:54.511Z,3.53
2018-05-21T17:45:56.982Z,3.20
2018-05-21T17:48:59.451Z,3.30
2018-05-21T17:52:01.939Z,3.40
2018-05-21T17:55:04.532Z,3.73
2018-05-21T17:58:07.140Z,3.23
2018-05-21T18:01:09.644Z,3.30
2018-05-21T18:04:12.129Z,3.60
2018-05-21T18:07:14.630Z,3.83
2018-05-21T18:10:17.143Z,3.60
2018-05-21T18:13:19.606Z,3.37
2018-05-21T18:16:22.229Z,3.57
2018-05-21T18:19:24.728Z,4.20
2018-05-21T18:22:27.236Z,3.60
2018-05-21T18:25:29.775Z,3.80
2018-05-21T18:28:32.280Z,4.80
2018-05-21T18:31:34.768Z,3.63
2018-05-21T18:34:37.257Z,4.10
2018-05-21T18:37:39.752Z,3.90
2018-05-21T18:40:42.288Z,4.03
2018-05-21T18:43:44.799Z,4.07
2018-05-21T18:46:47.311Z,4.13
2018-05-21T18:49:49.783Z,4.20
2018-05-21T18:52:52.279Z,4.07
2018-05-21T18:55:54.843Z,3.70
2018-05-21T18:58:57.366Z,3.93
2018-05-21T19:01:59.823Z,3.30
2018-05-21T19:05:02.353Z,3.80
2018-05-21T19:08:04.845Z,4.00
2018-05-21T19:11:07.371Z,4.57
2018-05-21T19:14:09.825Z,4.10
2018-05-21T19:17:12.411Z,4.00
2018-05-21T19:20:14.873Z,4.10
2018-05-21T19:23:17.373Z,4.40
2018-05-21T19:26:19.909Z,4.20
2018-05-21T19:29:22.420Z,4.47
2018-05-21T19:32:24.945Z,4.43
2018-05-21T19:35:27.424Z,4.13
2018-05-21T19:38:29.905Z,4.13
2018-05-21T19:41:32.422Z,4.70
2018-05-21T19:44:35.005Z,4.73
2018-05-21T19:47:37.654Z,4.20
2018-05-21T19:50:40.192Z,4.67
2018-05-21T19:53:42.654Z,4.60
2018-05-21T19:56:45.124Z,4.93
2018-05-21T19:59:47.622Z,4.70
2018-05-21T20:02:50.225Z,4.60
2018-05-21T20:05:52.798Z,4.50
2018-05-21T20:08:55.277Z,4.50
2018-05-21T20:11:57.751Z,4.60
2018-05-21T20:15:00.223Z,4.93
2018-05-21T20:18:02.732Z,4.83
2018-05-21T20:21:05.205Z,5.10
2018-05-21T20:24:07.693Z,5.03
2018-05-21T20:27:10.159Z,5.20
2018-05-21T20:30:12.640Z,5.20
2018-05-21T20:33:15.175Z,4.90
2018-05-21T20:36:17.604Z,5.13
2018-05-21T20:39:20.714Z,4.60
2018-05-21T20:42:23.234Z,4.43
2018-05-21T20:45:25.798Z,4.33
2018-05-21T20:48:28.259Z,5.03
2018-05-21T20:51:30.756Z,4.20
2018-05-21T20:54:33.200Z,4.50
2018-05-21T20:57:35.721Z,4.07
2018-05-21T21:00:38.335Z,4.40
2018-05-21T21:03:40.780Z,4.10
2018-05-21T21:06:43.274Z,4.40
2018-05-21T21:09:45.771Z,3.97
2018-05-21T21:12:48.290Z,4.47
2018-05-21T21:15:50.779Z,3.90
2018-05-21T21:18:53.303Z,4.40
2018-05-21T21:21:55.766Z,4.20
2018-05-21T21:24:58.285Z,3.70
2018-05-21T21:28:00.814Z,4.03
2018-05-21T21:31:03.336Z,3.63
2018-05-21T21:34:06.584Z,4.20
2018-05-21T21:37:09.234Z,3.97
2018-05-21T21:40:11.722Z,3.87
2018-05-21T21:43:14.221Z,4.63
2018-05-21T21:46:16.710Z,4.00
2018-05-21T21:49:19.149Z,4.23
2018-05-21T21:52:21.685Z,4.07
2018-05-21T21:55:24.238Z,4.97
2018-05-21T21:58:26.714Z,5.00
2018-05-21T22:01:29.212Z,4.63
2018-05-21T22:04:31.717Z,4.90
2018-05-21T22:07:34.164Z,4.77
2018-05-21T22:10:36.611Z,4.70
2018-05-21T22:13:39.136Z,4.40
2018-05-21T22:16:41.572Z,4.50
2018-05-21T22:19:44.265Z,4.30
2018-05-21T22:22:46.757Z,4.70
2018-05-21T22:25:49.247Z,5.10
2018-05-21T22:28:51.733Z,4.20
2018-05-21T22:31:54.310Z,4.50
2018-05-21T22:34:56.870Z,4.80
2018-05-21T22:37:59.299Z,4.13
2018-05-21T22:41:01.897Z,4.70
2018-05-21T22:44:04.437Z,4.30
2018-05-21T22:47:06.909Z,4.50
2018-05-21T22:50:09.417Z,4.87
2018-05-21T22:53:11.874Z,3.97
2018-05-21T22:56:14.317Z,4.30
2018-05-21T22:59:16.801Z,5.03
2018-05-21T23:02:19.251Z,4.80
2018-05-21T23:05:21.784Z,5.23
2018-05-21T23:08:24.349Z,4.77
2018-05-21T23:11:26.901Z,4.80
2018-05-21T23:14:29.467Z,4.10
2018-05-21T23:17:31.920Z,4.57
2018-05-21T23:20:34.387Z,5.10
2018-05-21T23:23:36.882Z,4.67
2018-05-21T23:26:39.320Z,4.70
2018-05-21T23:29:41.810Z,4.47
2018-05-21T23:32:44.319Z,4.50
2018-05-21T23:35:46.786Z,4.20
2018-05-21T23:38:49.362Z,4.30
2018-05-21T23:41:51.818Z,4.10
2018-05-21T23:44:54.457Z,4.83
2018-05-21T23:47:56.925Z,4.40
2018-05-21T23:50:59.411Z,4.47
2018-05-21T23:54:01.972Z,4.13
2018-05-21T23:57:04.464Z,4.13
